sensor_id;sensor_type;location;lat;lon;timestamp;pressure;altitude;pressure_sealevel;temperature;humidity
30338;BME280;17143;51.888;5.408;2023-05-21T00:01:45;101749.63;;;16.78;73.50
30338;BME280;17143;51.888;5.408;2023-05-21T00:16:48;101739.19;;;16.81;73.97
30338;BME280;17143;51.888;5.408;2023-05-21T00:31:50;101724.06;;;16.76;74.43
30338;BME280;17143;51.888;5.408;2023-05-21T00:46:52;101714.81;;;16.65;75.33
30338;BME280;17143;51.888;5.408;2023-05-21T01:01:55;101712.44;;;16.52;75.96
30338;BME280;17143;51.888;5.408;2023-05-21T01:16:58;101706.38;;;16.33;77.21
30338;BME280;17143;51.888;5.408;2023-05-21T01:32:06;101700.41;;;16.18;78.65
30338;BME280;17143;51.888;5.408;2023-05-21T01:47:12;101696.53;;;16.10;79.68
30338;BME280;17143;51.888;5.408;2023-05-21T02:02:14;101683.66;;;15.97;81.10
30338;BME280;17143;51.888;5.408;2023-05-21T02:17:16;101682.34;;;15.88;81.82
30338;BME280;17143;51.888;5.408;2023-05-21T02:32:18;101681.31;;;15.84;82.59
30338;BME280;17143;51.888;5.408;2023-05-21T02:47:20;101672.94;;;15.73;83.56
30338;BME280;17143;51.888;5.408;2023-05-21T03:02:23;101671.66;;;15.65;84.50
30338;BME280;17143;51.888;5.408;2023-05-21T03:17:25;101668.63;;;15.56;85.33
30338;BME280;17143;51.888;5.408;2023-05-21T03:32:27;101660.41;;;15.49;86.59
30338;BME280;17143;51.888;5.408;2023-05-21T03:47:30;101653.16;;;15.45;87.01
30338;BME280;17143;51.888;5.408;2023-05-21T04:02:33;101645.13;;;15.42;87.65
30338;BME280;17143;51.888;5.408;2023-05-21T04:17:35;101659.00;;;15.39;89.12
30338;BME280;17143;51.888;5.408;2023-05-21T04:32:38;101660.56;;;15.36;90.11
30338;BME280;17143;51.888;5.408;2023-05-21T04:47:42;101654.66;;;15.40;91.51
30338;BME280;17143;51.888;5.408;2023-05-21T05:02:44;101664.13;;;15.54;91.74
30338;BME280;17143;51.888;5.408;2023-05-21T05:17:47;101662.88;;;15.65;92.60
30338;BME280;17143;51.888;5.408;2023-05-21T05:32:49;101657.09;;;15.72;93.27
30338;BME280;17143;51.888;5.408;2023-05-21T05:47:51;101655.72;;;15.99;93.47
30338;BME280;17143;51.888;5.408;2023-05-21T06:02:54;101659.41;;;16.42;90.90
30338;BME280;17143;51.888;5.408;2023-05-21T06:17:56;101647.84;;;16.39;91.20
30338;BME280;17143;51.888;5.408;2023-05-21T06:32:58;101660.97;;;16.37;91.64
30338;BME280;17143;51.888;5.408;2023-05-21T06:48:00;101652.94;;;16.54;91.52
30338;BME280;17143;51.888;5.408;2023-05-21T07:03:03;101647.78;;;16.98;90.15
30338;BME280;17143;51.888;5.408;2023-05-21T07:18:05;101638.28;;;17.67;87.40
30338;BME280;17143;51.888;5.408;2023-05-21T07:33:08;101643.69;;;18.17;85.00
30338;BME280;17143;51.888;5.408;2023-05-21T07:48:10;101642.75;;;18.64;81.68
30338;BME280;17143;51.888;5.408;2023-05-21T08:03:21;101624.53;;;19.25;79.25
30338;BME280;17143;51.888;5.408;2023-05-21T08:18:25;101630.34;;;19.99;76.37
30338;BME280;17143;51.888;5.408;2023-05-21T08:33:29;101620.78;;;21.03;71.96
30338;BME280;17143;51.888;5.408;2023-05-21T08:48:31;101617.44;;;21.86;68.99
30338;BME280;17143;51.888;5.408;2023-05-21T09:03:34;101616.09;;;22.54;65.62
30338;BME280;17143;51.888;5.408;2023-05-21T09:18:36;101607.50;;;22.66;65.90
30338;BME280;17143;51.888;5.408;2023-05-21T09:34:01;101593.22;;;23.13;62.49
30338;BME280;17143;51.888;5.408;2023-05-21T09:49:04;101585.00;;;23.59;61.84
30338;BME280;17143;51.888;5.408;2023-05-21T10:04:07;101578.19;;;23.80;60.94
30338;BME280;17143;51.888;5.408;2023-05-21T10:19:10;101567.50;;;23.77;60.70
30338;BME280;17143;51.888;5.408;2023-05-21T10:34:13;101557.81;;;24.67;59.00
30338;BME280;17143;51.888;5.408;2023-05-21T10:49:29;101535.13;;;25.27;56.75
30338;BME280;17143;51.888;5.408;2023-05-21T11:04:36;101524.47;;;25.30;57.65
30338;BME280;17143;51.888;5.408;2023-05-21T11:19:39;101514.88;;;25.62;54.90
30338;BME280;17143;51.888;5.408;2023-05-21T11:34:43;101507.75;;;25.60;55.83
30338;BME280;17143;51.888;5.408;2023-05-21T11:49:45;101479.34;;;26.01;55.62
30338;BME280;17143;51.888;5.408;2023-05-21T12:04:49;101468.63;;;25.87;54.19
30338;BME280;17143;51.888;5.408;2023-05-21T12:19:53;101451.78;;;26.43;54.18
30338;BME280;17143;51.888;5.408;2023-05-21T12:34:56;101448.22;;;26.38;53.98
30338;BME280;17143;51.888;5.408;2023-05-21T12:49:59;101431.28;;;26.40;54.13
30338;BME280;17143;51.888;5.408;2023-05-21T13:05:02;101444.41;;;27.36;52.74
30338;BME280;17143;51.888;5.408;2023-05-21T13:20:06;101432.84;;;27.28;53.04
30338;BME280;17143;51.888;5.408;2023-05-21T13:35:09;101423.19;;;26.93;53.15
30338;BME280;17143;51.888;5.408;2023-05-21T13:50:12;101420.34;;;27.34;52.67
30338;BME280;17143;51.888;5.408;2023-05-21T14:05:14;101432.13;;;26.89;54.56
30338;BME280;17143;51.888;5.408;2023-05-21T14:20:16;101427.66;;;26.72;55.82
30338;BME280;17143;51.888;5.408;2023-05-21T14:35:18;101426.69;;;27.07;56.23
30338;BME280;17143;51.888;5.408;2023-05-21T14:50:20;101400.03;;;26.92;55.70
30338;BME280;17143;51.888;5.408;2023-05-21T15:05:23;101387.59;;;26.61;56.76
30338;BME280;17143;51.888;5.408;2023-05-21T15:20:25;101375.19;;;26.33;58.23
30338;BME280;17143;51.888;5.408;2023-05-21T15:35:27;101375.16;;;26.48;57.42
30338;BME280;17143;51.888;5.408;2023-05-21T15:50:29;101362.72;;;25.89;59.27
30338;BME280;17143;51.888;5.408;2023-05-21T16:05:31;101362.72;;;26.05;60.03
30338;BME280;17143;51.888;5.408;2023-05-21T16:20:33;101368.06;;;25.83;60.27
30338;BME280;17143;51.888;5.408;2023-05-21T16:35:35;101373.34;;;25.47;62.55
30338;BME280;17143;51.888;5.408;2023-05-21T16:50:38;101372.41;;;25.27;62.63
30338;BME280;17143;51.888;5.408;2023-05-21T17:05:40;101380.28;;;24.94;63.84
30338;BME280;17143;51.888;5.408;2023-05-21T17:20:42;101381.78;;;24.43;65.61
30338;BME280;17143;51.888;5.408;2023-05-21T17:35:44;101379.94;;;24.36;66.87
30338;BME280;17143;51.888;5.408;2023-05-21T17:50:46;101374.09;;;23.76;68.17
30338;BME280;17143;51.888;5.408;2023-05-21T18:05:48;101382.63;;;23.41;70.10
30338;BME280;17143;51.888;5.408;2023-05-21T18:20:51;101392.06;;;23.15;71.41
30338;BME280;17143;51.888;5.408;2023-05-21T18:35:54;101387.09;;;22.75;72.90
30338;BME280;17143;51.888;5.408;2023-05-21T18:50:56;101391.88;;;22.40;74.54
30338;BME280;17143;51.888;5.408;2023-05-21T19:05:58;101392.22;;;22.04;76.40
30338;BME280;17143;51.888;5.408;2023-05-21T19:21:00;101390.69;;;21.69;78.28
30338;BME280;17143;51.888;5.408;2023-05-21T19:36:02;101395.13;;;21.23;80.14
30338;BME280;17143;51.888;5.408;2023-05-21T19:51:04;101406.59;;;20.82;82.45
30338;BME280;17143;51.888;5.408;2023-05-21T20:06:06;101423.16;;;20.35;85.17
30338;BME280;17143;51.888;5.408;2023-05-21T20:21:09;101420.25;;;20.24;85.74
30338;BME280;17143;51.888;5.408;2023-05-21T20:36:11;101411.38;;;20.22;85.95
30338;BME280;17143;51.888;5.408;2023-05-21T20:51:13;101407.38;;;19.69;89.32
30338;BME280;17143;51.888;5.408;2023-05-21T21:06:16;101408.66;;;19.52;90.43
30338;BME280;17143;51.888;5.408;2023-05-21T21:21:19;101403.88;;;19.08;94.02
30338;BME280;17143;51.888;5.408;2023-05-21T21:36:21;101397.97;;;18.87;96.14
30338;BME280;17143;51.888;5.408;2023-05-21T21:51:23;101396.44;;;18.65;97.63
30338;BME280;17143;51.888;5.408;2023-05-21T22:06:25;101394.84;;;18.43;99.64
30338;BME280;17143;51.888;5.408;2023-05-21T22:21:27;101387.50;;;18.33;100.00
30338;BME280;17143;51.888;5.408;2023-05-21T22:36:29;101385.69;;;18.32;100.00
30338;BME280;17143;51.888;5.408;2023-05-21T22:51:31;101402.06;;;18.22;100.00
30338;BME280;17143;51.888;5.408;2023-05-21T23:06:33;101474.06;;;18.18;100.00
30338;BME280;17143;51.888;5.408;2023-05-21T23:21:35;101431.59;;;18.37;100.00
30338;BME280;17143;51.888;5.408;2023-05-21T23:36:37;101373.84;;;17.93;100.00
30338;BME280;17143;51.888;5.408;2023-05-21T23:51:39;101345.66;;;17.63;100.00
